»·PEaware :: WAT169 KSNA-KLAS

WAT169 :: KSNA-KLAS

FLIGHT INFORMATION

Flight Status: Arrived
Operator:
Walker Air Transport
More flights by this operator :: More flights under this callsign
Pilot: Marty P. (27464)
Aircraft: DASSAULT AVIATION FALCON 50
(FA50)
More flights by this aircraft type
Origin: KSNA John Wayne-Orange Co
United States
Destination: KLAS McCarran Intl
United States
More flights between these airports :: More routes between these airports
Route: +FINZZ3 MISEN KEPEC6
File this flight plan on PilotEdge
Remarks:
Altitude:
(Current/Filed)
31,000ft
Speed:
(Current/Filed)
480kts
Departed: 21-Nov-20 01:00 PM
Arrived: 21-Nov-20 01:42 PM
Distance/Time
Traveled:
196nm/0:41
Distance/Time
To Go:
Arrived

Flight Plot

Page will automatically refresh every two minutes.

Flight plan parsing failed; only flown route is shown


Map Options




Map Legend


Flown Route
Filed Route
Departure Airport
Arrival Airport
Navaid (VOR, NDB)
Fix

Horizontal Profiles

Position Reports

Time Latitude Longitude Heading Altitude Ground
Speed
21-Nov-20 12:53 33.671820 -117.867281 21 63ft 0kts
21-Nov-20 12:54 33.671820 -117.867281 21 63ft 0kts
21-Nov-20 12:55 33.672800 -117.867603 40 63ft 6kts
21-Nov-20 12:56 33.675947 -117.865306 27 63ft 19kts
21-Nov-20 12:57 33.679575 -117.863009 27 63ft 12kts
21-Nov-20 12:58 33.681349 -117.864648 297 63ft 13kts
21-Nov-20 12:59 33.660029 -117.879177 210 693ft 174kts
21-Nov-20 13:00 33.610426 -117.893544 186 4185ft 192kts
21-Nov-20 13:01 33.560428 -117.912518 228 5105ft 227kts
21-Nov-20 13:02 33.512059 -117.971422 241 8042ft 250kts
21-Nov-20 13:03 33.520979 -118.053840 312 8007ft 270kts
21-Nov-20 13:04 33.579728 -118.110927 339 10921ft 280kts
21-Nov-20 13:05 33.671522 -118.081708 22 12507ft 399kts
21-Nov-20 13:06 33.770700 -118.023967 21 16762ft 393kts
21-Nov-20 13:07 33.871095 -117.965372 21 19798ft 405kts
21-Nov-20 13:08 33.963091 -117.893118 31 23030ft 410kts
21-Nov-20 13:09 34.054761 -117.808900 31 25573ft 415kts
21-Nov-20 13:10 34.137002 -117.706543 45 27372ft 443kts
21-Nov-20 13:11 34.212999 -117.593627 44 30567ft 415kts
21-Nov-20 13:12 34.287893 -117.482529 44 31250ft 457kts
21-Nov-20 13:13 34.372016 -117.356777 45 31247ft 505kts
21-Nov-20 13:14 34.462591 -117.220789 46 31229ft 536kts
21-Nov-20 13:15 34.557853 -117.077490 45 31234ft 552kts
21-Nov-20 13:16 34.656961 -116.933588 44 31266ft 560kts
21-Nov-20 13:17 34.756636 -116.787837 45 31250ft 564kts
21-Nov-20 13:18 34.856241 -116.643415 38 29492ft 550kts
21-Nov-20 13:19 34.973798 -116.528651 32 26636ft 539kts
21-Nov-20 13:20 35.090877 -116.413424 36 24378ft 540kts
21-Nov-20 13:21 35.194084 -116.288595 41 22880ft 531kts
21-Nov-20 13:22 35.295744 -116.161209 42 21518ft 513kts
21-Nov-20 13:23 35.392424 -116.039320 42 19033ft 490kts
21-Nov-20 13:24 35.485084 -115.922084 42 16573ft 458kts
21-Nov-20 13:25 35.565655 -115.819660 43 14530ft 384kts
21-Nov-20 13:26 35.635081 -115.731320 43 12990ft 329kts
21-Nov-20 13:27 35.692263 -115.658410 42 13043ft 302kts
21-Nov-20 13:28 35.756330 -115.585466 22 13020ft 304kts
21-Nov-20 13:29 35.838364 -115.570906 358 13026ft 313kts
21-Nov-20 13:30 35.927426 -115.564507 8 12962ft 323kts
21-Nov-20 13:31 35.990852 -115.501529 65 11751ft 296kts
21-Nov-20 13:32 36.019406 -115.412070 67 10968ft 260kts
21-Nov-20 13:33 36.030979 -115.322030 65 9982ft 272kts
21-Nov-20 13:34 36.085595 -115.270380 31 8593ft 221kts
21-Nov-20 13:35 36.135976 -115.232039 31 6507ft 213kts
21-Nov-20 13:36 36.183501 -115.196189 31 5619ft 191kts
21-Nov-20 13:37 36.200511 -115.153793 110 5159ft 148kts
21-Nov-20 13:38 36.178432 -115.116028 188 3409ft 115kts
21-Nov-20 13:39 36.144791 -115.131216 203 3153ft 135kts
21-Nov-20 13:40 36.110341 -115.150327 202 2406ft 135kts
21-Nov-20 13:41 36.085052 -115.164991 214 2146ft 26kts
21-Nov-20 13:42 36.083205 -115.167336 213 2158ft 11kts
21-Nov-20 13:43 36.080454 -115.170026 250 2171ft 10kts
21-Nov-20 13:44 36.080782 -115.170583 38 2172ft 0kts
21-Nov-20 13:45 36.080782 -115.170583 38 2172ft 0kts

Navigation Log

Ident Type
Flight plan parsing failed, navigation log unavailable